sensor_id;sensor_type;location;lat;lon;timestamp;pressure;altitude;pressure_sealevel;temperature;humidity
48976;BME280;34791;52.752;8.346;2022-12-15T00:00:54;145732.41;;;-6.82;100.00
48976;BME280;34791;52.752;8.346;2022-12-15T00:03:38;145752.81;;;-6.73;100.00
48976;BME280;34791;52.752;8.346;2022-12-15T00:06:22;145732.41;;;-6.82;100.00
48976;BME280;34791;52.752;8.346;2022-12-15T00:09:06;145724.75;;;-6.85;100.00
48976;BME280;34791;52.752;8.346;2022-12-15T00:11:50;145715.84;;;-6.88;100.00
48976;BME280;34791;52.752;8.346;2022-12-15T00:14:34;145714.59;;;-6.89;100.00
48976;BME280;34791;52.752;8.346;2022-12-15T00:17:18;145677.59;;;-7.03;100.00
48976;BME280;34791;52.752;8.346;2022-12-15T00:20:02;145700.53;;;-6.94;100.00
48976;BME280;34791;52.752;8.346;2022-12-15T00:22:46;145745.16;;;-6.76;100.00
48976;BME280;34791;52.752;8.346;2022-12-15T00:25:30;145748.97;;;-6.75;100.00
48976;BME280;34791;52.752;8.346;2022-12-15T00:28:14;145787.22;;;-6.60;100.00
48976;BME280;34791;52.752;8.346;2022-12-15T00:30:58;145782.13;;;-6.62;100.00
48976;BME280;34791;52.752;8.346;2022-12-15T00:33:42;145794.84;;;-6.57;100.00
48976;BME280;34791;52.752;8.346;2022-12-15T00:36:26;145796.13;;;-6.56;100.00
48976;BME280;34791;52.752;8.346;2022-12-15T00:39:11;145770.63;;;-6.66;100.00
48976;BME280;34791;52.752;8.346;2022-12-15T00:41:36;145774.47;;;-6.65;100.00
48976;BME280;34791;52.752;8.346;2022-12-15T00:44:02;145793.56;;;-6.57;100.00
48976;BME280;34791;52.752;8.346;2022-12-15T00:46:27;145788.47;;;-6.59;100.00
48976;BME280;34791;52.752;8.346;2022-12-15T00:49:11;145808.91;;;-6.51;100.00
48976;BME280;34791;52.752;8.346;2022-12-15T00:51:55;145813.97;;;-6.49;100.00
48976;BME280;34791;52.752;8.346;2022-12-15T00:54:39;145848.41;;;-6.35;100.00
48976;BME280;34791;52.752;8.346;2022-12-15T00:57:23;145835.66;;;-6.40;100.00
48976;BME280;34791;52.752;8.346;2022-12-15T01:00:08;145831.84;;;-6.42;100.00
48976;BME280;34791;52.752;8.346;2022-12-15T01:02:52;145815.25;;;-6.48;100.00
48976;BME280;34791;52.752;8.346;2022-12-15T01:05:36;145778.31;;;-6.63;100.00
48976;BME280;34791;52.752;8.346;2022-12-15T01:08:20;145731.13;;;-6.82;100.00
48976;BME280;34791;52.752;8.346;2022-12-15T01:11:04;145761.72;;;-6.70;100.00
48976;BME280;34791;52.752;8.346;2022-12-15T01:13:48;145825.44;;;-6.44;100.00
48976;BME280;34791;52.752;8.346;2022-12-15T01:16:32;145842.03;;;-6.38;100.00
48976;BME280;34791;52.752;8.346;2022-12-15T01:19:15;145876.47;;;-6.24;100.00
48976;BME280;34791;52.752;8.346;2022-12-15T01:21:59;145927.50;;;-6.04;100.00
48976;BME280;34791;52.752;8.346;2022-12-15T01:24:25;145919.81;;;-6.07;100.00
48976;BME280;34791;52.752;8.346;2022-12-15T01:26:50;145901.97;;;-6.14;100.00
48976;BME280;34791;52.752;8.346;2022-12-15T01:29:15;145894.34;;;-6.17;100.00
48976;BME280;34791;52.752;8.346;2022-12-15T01:31:41;145889.19;;;-6.19;100.00
48976;BME280;34791;52.752;8.346;2022-12-15T01:34:08;145901.97;;;-6.14;100.00
48976;BME280;34791;52.752;8.346;2022-12-15T01:36:33;145949.13;;;-5.95;100.00
48976;BME280;34791;52.752;8.346;2022-12-15T01:39:00;145945.31;;;-5.97;100.00
48976;BME280;34791;52.752;8.346;2022-12-15T01:41:25;145879.00;;;-6.23;100.00
48976;BME280;34791;52.752;8.346;2022-12-15T01:43:51;145822.91;;;-6.45;100.00
48976;BME280;34791;52.752;8.346;2022-12-15T01:46:18;145797.38;;;-6.56;100.00
48976;BME280;34791;52.752;8.346;2022-12-15T01:51:32;145932.59;;;-6.02;100.00
48976;BME280;34791;52.752;8.346;2022-12-15T01:56:25;145887.91;;;-6.20;100.00
48976;BME280;34791;52.752;8.346;2022-12-15T01:58:54;145894.34;;;-6.17;100.00
48976;BME280;34791;52.752;8.346;2022-12-15T02:01:21;145853.50;;;-6.33;100.00
48976;BME280;34791;52.752;8.346;2022-12-15T02:03:47;145863.72;;;-6.29;100.00
48976;BME280;34791;52.752;8.346;2022-12-15T02:06:13;145831.84;;;-6.42;100.00
48976;BME280;34791;52.752;8.346;2022-12-15T02:08:40;145889.19;;;-6.19;100.00
48976;BME280;34791;52.752;8.346;2022-12-15T02:11:19;145914.72;;;-6.09;100.00
48976;BME280;34791;52.752;8.346;2022-12-15T02:14:02;145930.03;;;-6.03;100.00
48976;BME280;34791;52.752;8.346;2022-12-15T02:30:28;145917.25;;;-6.08;100.00
48976;BME280;34791;52.752;8.346;2022-12-15T02:38:37;145938.94;;;-5.99;100.00
48976;BME280;34791;52.752;8.346;2022-12-15T02:41:31;145947.88;;;-5.96;100.00
48976;BME280;34791;52.752;8.346;2022-12-15T02:43:57;145917.25;;;-6.08;100.00
48976;BME280;34791;52.752;8.346;2022-12-15T02:46:38;145875.19;;;-6.25;100.00
48976;BME280;34791;52.752;8.346;2022-12-15T02:49:36;145861.13;;;-6.30;100.00
48976;BME280;34791;52.752;8.346;2022-12-15T02:54:58;145882.81;;;-6.22;100.00
48976;BME280;34791;52.752;8.346;2022-12-15T03:00:38;145875.19;;;-6.25;100.00
48976;BME280;34791;52.752;8.346;2022-12-15T03:03:06;145894.34;;;-6.17;100.00
48976;BME280;34791;52.752;8.346;2022-12-15T03:05:31;145873.91;;;-6.25;100.00
48976;BME280;34791;52.752;8.346;2022-12-15T03:07:57;145866.28;;;-6.28;100.00
48976;BME280;34791;52.752;8.346;2022-12-15T03:10:24;145890.47;;;-6.18;100.00
48976;BME280;34791;52.752;8.346;2022-12-15T03:12:50;145917.25;;;-6.08;100.00
48976;BME280;34791;52.752;8.346;2022-12-15T03:15:16;145933.84;;;-6.01;100.00
48976;BME280;34791;52.752;8.346;2022-12-15T03:17:42;145904.53;;;-6.13;100.00
48976;BME280;34791;52.752;8.346;2022-12-15T03:20:07;145912.16;;;-6.10;100.00
48976;BME280;34791;52.752;8.346;2022-12-15T03:22:34;145868.81;;;-6.27;100.00
48976;BME280;34791;52.752;8.346;2022-12-15T03:24:59;145835.66;;;-6.40;100.00
48976;BME280;34791;52.752;8.346;2022-12-15T03:27:25;145904.53;;;-6.13;100.00
48976;BME280;34791;52.752;8.346;2022-12-15T03:29:50;145922.34;;;-6.06;100.00
48976;BME280;34791;52.752;8.346;2022-12-15T03:32:16;145896.88;;;-6.16;100.00
48976;BME280;34791;52.752;8.346;2022-12-15T03:34:41;145896.88;;;-6.16;100.00
48976;BME280;34791;52.752;8.346;2022-12-15T03:37:06;145839.50;;;-6.39;100.00
48976;BME280;34791;52.752;8.346;2022-12-15T03:39:32;145811.44;;;-6.50;100.00
48976;BME280;34791;52.752;8.346;2022-12-15T03:41:58;145830.53;;;-6.42;100.00
48976;BME280;34791;52.752;8.346;2022-12-15T03:44:23;145849.69;;;-6.35;100.00
48976;BME280;34791;52.752;8.346;2022-12-15T03:46:48;145848.41;;;-6.35;100.00
48976;BME280;34791;52.752;8.346;2022-12-15T03:49:34;145828.00;;;-6.43;100.00
48976;BME280;34791;52.752;8.346;2022-12-15T03:51:59;145810.16;;;-6.51;100.00
48976;BME280;34791;52.752;8.346;2022-12-15T03:54:24;145821.63;;;-6.46;100.00
48976;BME280;34791;52.752;8.346;2022-12-15T03:56:50;145835.66;;;-6.40;100.00
48976;BME280;34791;52.752;8.346;2022-12-15T03:59:15;145868.81;;;-6.27;100.00
48976;BME280;34791;52.752;8.346;2022-12-15T04:01:45;145810.16;;;-6.51;100.00
48976;BME280;34791;52.752;8.346;2022-12-15T04:04:12;145838.22;;;-6.39;100.00
48976;BME280;34791;52.752;8.346;2022-12-15T04:06:37;145840.75;;;-6.38;100.00
48976;BME280;34791;52.752;8.346;2022-12-15T04:09:02;145820.34;;;-6.46;100.00
48976;BME280;34791;52.752;8.346;2022-12-15T04:11:28;145840.75;;;-6.38;100.00
48976;BME280;34791;52.752;8.346;2022-12-15T04:13:53;145848.41;;;-6.35;100.00
48976;BME280;34791;52.752;8.346;2022-12-15T04:16:18;145840.75;;;-6.38;100.00
48976;BME280;34791;52.752;8.346;2022-12-15T04:18:44;145810.16;;;-6.51;100.00
48976;BME280;34791;52.752;8.346;2022-12-15T04:21:09;145826.72;;;-6.44;100.00
48976;BME280;34791;52.752;8.346;2022-12-15T04:23:34;145840.75;;;-6.38;100.00
48976;BME280;34791;52.752;8.346;2022-12-15T04:26:00;145845.84;;;-6.36;100.00
48976;BME280;34791;52.752;8.346;2022-12-15T04:28:44;145873.91;;;-6.25;100.00
48976;BME280;34791;52.752;8.346;2022-12-15T04:31:32;145859.84;;;-6.31;100.00
48976;BME280;34791;52.752;8.346;2022-12-15T04:34:22;145850.94;;;-6.34;100.00
48976;BME280;34791;52.752;8.346;2022-12-15T04:37:11;145847.13;;;-6.36;100.00
48976;BME280;34791;52.752;8.346;2022-12-15T04:39:56;145843.31;;;-6.37;100.00
48976;BME280;34791;52.752;8.346;2022-12-15T04:42:42;145811.44;;;-6.50;100.00
48976;BME280;34791;52.752;8.346;2022-12-15T04:45:28;145792.31;;;-6.58;100.00
48976;BME280;34791;52.752;8.346;2022-12-15T04:48:12;145791.03;;;-6.58;100.00
48976;BME280;34791;52.752;8.346;2022-12-15T04:50:56;145784.66;;;-6.61;100.00
48976;BME280;34791;52.752;8.346;2022-12-15T04:53:42;145782.13;;;-6.62;100.00
48976;BME280;34791;52.752;8.346;2022-12-15T04:56:26;145777.03;;;-6.64;100.00
48976;BME280;34791;52.752;8.346;2022-12-15T04:59:10;145792.31;;;-6.58;100.00
48976;BME280;34791;52.752;8.346;2022-12-15T05:01:54;145784.66;;;-6.61;100.00
48976;BME280;34791;52.752;8.346;2022-12-15T05:04:38;145807.63;;;-6.52;100.00
48976;BME280;34791;52.752;8.346;2022-12-15T05:07:23;145791.03;;;-6.58;100.00
48976;BME280;34791;52.752;8.346;2022-12-15T05:10:08;145769.34;;;-6.67;100.00
48976;BME280;34791;52.752;8.346;2022-12-15T05:12:52;145769.34;;;-6.67;100.00
48976;BME280;34791;52.752;8.346;2022-12-15T05:15:36;145748.97;;;-6.75;100.00
48976;BME280;34791;52.752;8.346;2022-12-15T05:18:20;145760.44;;;-6.70;100.00
48976;BME280;34791;52.752;8.346;2022-12-15T05:21:05;145797.38;;;-6.56;100.00
48976;BME280;34791;52.752;8.346;2022-12-15T05:23:49;145843.31;;;-6.37;100.00
48976;BME280;34791;52.752;8.346;2022-12-15T05:26:33;145836.94;;;-6.40;100.00
48976;BME280;34791;52.752;8.346;2022-12-15T05:29:16;145842.03;;;-6.38;100.00
48976;BME280;34791;52.752;8.346;2022-12-15T05:32:00;145867.56;;;-6.28;100.00
48976;BME280;34791;52.752;8.346;2022-12-15T05:34:28;145889.19;;;-6.19;100.00
48976;BME280;34791;52.752;8.346;2022-12-15T05:36:56;145899.44;;;-6.15;100.00
48976;BME280;34791;52.752;8.346;2022-12-15T05:39:22;145904.53;;;-6.13;100.00
48976;BME280;34791;52.752;8.346;2022-12-15T05:41:49;145886.66;;;-6.20;100.00
48976;BME280;34791;52.752;8.346;2022-12-15T05:44:14;145867.56;;;-6.28;100.00
48976;BME280;34791;52.752;8.346;2022-12-15T05:46:40;145848.41;;;-6.35;100.00
48976;BME280;34791;52.752;8.346;2022-12-15T05:49:07;145866.28;;;-6.28;100.00
48976;BME280;34791;52.752;8.346;2022-12-15T05:51:35;145887.91;;;-6.20;100.00
48976;BME280;34791;52.752;8.346;2022-12-15T05:54:01;145901.97;;;-6.14;100.00
48976;BME280;34791;52.752;8.346;2022-12-15T05:56:26;145893.06;;;-6.17;100.00
48976;BME280;34791;52.752;8.346;2022-12-15T05:58:52;145889.19;;;-6.19;100.00
48976;BME280;34791;52.752;8.346;2022-12-15T06:01:18;145894.34;;;-6.17;100.00
48976;BME280;34791;52.752;8.346;2022-12-15T06:03:44;145889.19;;;-6.19;100.00
48976;BME280;34791;52.752;8.346;2022-12-15T06:06:11;145908.34;;;-6.11;100.00
48976;BME280;34791;52.752;8.346;2022-12-15T06:08:38;145912.16;;;-6.10;100.00
48976;BME280;34791;52.752;8.346;2022-12-15T06:11:05;145919.81;;;-6.07;100.00
48976;BME280;34791;52.752;8.346;2022-12-15T06:13:31;145927.50;;;-6.04;100.00
48976;BME280;34791;52.752;8.346;2022-12-15T06:16:16;145963.16;;;-5.90;100.00
48976;BME280;34791;52.752;8.346;2022-12-15T06:18:44;145977.16;;;-5.84;100.00
48976;BME280;34791;52.752;8.346;2022-12-15T06:21:13;145968.25;;;-5.87;100.00
48976;BME280;34791;52.752;8.346;2022-12-15T06:23:40;145952.97;;;-5.94;100.00
48976;BME280;34791;52.752;8.346;2022-12-15T06:26:10;145980.97;;;-5.82;100.00
48976;BME280;34791;52.752;8.346;2022-12-15T06:28:36;146010.31;;;-5.71;100.00
48976;BME280;34791;52.752;8.346;2022-12-15T06:31:03;145992.50;;;-5.78;100.00
48976;BME280;34791;52.752;8.346;2022-12-15T06:33:29;145983.56;;;-5.81;100.00
48976;BME280;34791;52.752;8.346;2022-12-15T06:35:55;145986.13;;;-5.80;100.00
48976;BME280;34791;52.752;8.346;2022-12-15T06:38:21;145992.50;;;-5.78;100.00
48976;BME280;34791;52.752;8.346;2022-12-15T06:40:59;145998.84;;;-5.75;100.00
48976;BME280;34791;52.752;8.346;2022-12-15T06:43:26;146067.75;;;-5.48;100.00
48976;BME280;34791;52.752;8.346;2022-12-15T06:45:52;146080.53;;;-5.43;100.00
48976;BME280;34791;52.752;8.346;2022-12-15T06:48:18;146092.00;;;-5.38;100.00
48976;BME280;34791;52.752;8.346;2022-12-15T06:50:44;146079.25;;;-5.43;100.00
48976;BME280;34791;52.752;8.346;2022-12-15T06:53:14;146072.84;;;-5.46;100.00
48976;BME280;34791;52.752;8.346;2022-12-15T06:55:42;146072.84;;;-5.46;100.00
48976;BME280;34791;52.752;8.346;2022-12-15T06:58:08;146046.09;;;-5.56;100.00
48976;BME280;34791;52.752;8.346;2022-12-15T07:00:34;146016.75;;;-5.68;100.00
48976;BME280;34791;52.752;8.346;2022-12-15T07:03:03;146016.75;;;-5.68;100.00
48976;BME280;34791;52.752;8.346;2022-12-15T07:05:30;146006.50;;;-5.72;100.00
48976;BME280;34791;52.752;8.346;2022-12-15T07:07:56;146016.75;;;-5.68;100.00
48976;BME280;34791;52.752;8.346;2022-12-15T07:10:21;146016.75;;;-5.68;100.00
48976;BME280;34791;52.752;8.346;2022-12-15T07:12:46;145998.84;;;-5.75;100.00
48976;BME280;34791;52.752;8.346;2022-12-15T07:15:12;145975.88;;;-5.84;100.00
48976;BME280;34791;52.752;8.346;2022-12-15T07:17:37;145993.75;;;-5.77;100.00
48976;BME280;34791;52.752;8.346;2022-12-15T07:20:06;145993.75;;;-5.77;100.00
48976;BME280;34791;52.752;8.346;2022-12-15T07:22:32;146009.03;;;-5.71;100.00
48976;BME280;34791;52.752;8.346;2022-12-15T07:24:58;146039.66;;;-5.59;100.00
48976;BME280;34791;52.752;8.346;2022-12-15T07:27:24;146052.47;;;-5.54;100.00
48976;BME280;34791;52.752;8.346;2022-12-15T07:29:49;146043.50;;;-5.57;100.00
48976;BME280;34791;52.752;8.346;2022-12-15T07:32:14;146053.72;;;-5.53;100.00
48976;BME280;34791;52.752;8.346;2022-12-15T07:34:40;146081.81;;;-5.42;100.00
48976;BME280;34791;52.752;8.346;2022-12-15T07:37:06;146080.53;;;-5.43;100.00
48976;BME280;34791;52.752;8.346;2022-12-15T07:39:32;146065.19;;;-5.49;100.00
48976;BME280;34791;52.752;8.346;2022-12-15T07:41:57;146051.19;;;-5.54;100.00
48976;BME280;34791;52.752;8.346;2022-12-15T07:44:22;146032.03;;;-5.62;100.00
48976;BME280;34791;52.752;8.346;2022-12-15T07:46:48;146055.00;;;-5.53;100.00
48976;BME280;34791;52.752;8.346;2022-12-15T07:49:15;146072.84;;;-5.46;100.00
48976;BME280;34791;52.752;8.346;2022-12-15T07:51:41;146095.81;;;-5.37;100.00
48976;BME280;34791;52.752;8.346;2022-12-15T07:54:09;146085.63;;;-5.41;100.00
48976;BME280;34791;52.752;8.346;2022-12-15T07:56:36;146083.09;;;-5.42;100.00
48976;BME280;34791;52.752;8.346;2022-12-15T07:59:02;146103.47;;;-5.34;100.00
48976;BME280;34791;52.752;8.346;2022-12-15T08:01:27;146108.63;;;-5.32;100.00
48976;BME280;34791;52.752;8.346;2022-12-15T08:03:52;146118.81;;;-5.27;100.00
48976;BME280;34791;52.752;8.346;2022-12-15T08:06:18;146134.09;;;-5.21;100.00
48976;BME280;34791;52.752;8.346;2022-12-15T08:08:44;146157.09;;;-5.12;100.00
48976;BME280;34791;52.752;8.346;2022-12-15T08:11:12;146164.75;;;-5.09;100.00
48976;BME280;34791;52.752;8.346;2022-12-15T08:13:39;146172.44;;;-5.06;100.00
48976;BME280;34791;52.752;8.346;2022-12-15T08:16:05;146206.91;;;-4.92;100.00
48976;BME280;34791;52.752;8.346;2022-12-15T08:18:31;146243.94;;;-4.78;100.00
48976;BME280;34791;52.752;8.346;2022-12-15T08:21:04;146352.53;;;-4.34;100.00
48976;BME280;34791;52.752;8.346;2022-12-15T08:23:31;146438.09;;;-4.00;100.00
48976;BME280;34791;52.752;8.346;2022-12-15T08:26:10;146473.94;;;-3.86;100.00
48976;BME280;34791;52.752;8.346;2022-12-15T08:28:37;146499.44;;;-3.76;100.00
48976;BME280;34791;52.752;8.346;2022-12-15T08:31:04;146537.84;;;-3.61;100.00
48976;BME280;34791;52.752;8.346;2022-12-15T08:33:30;146604.31;;;-3.34;100.00
48976;BME280;34791;52.752;8.346;2022-12-15T08:36:04;146642.69;;;-3.19;100.00
48976;BME280;34791;52.752;8.346;2022-12-15T08:38:31;146737.34;;;-2.81;100.00
48976;BME280;34791;52.752;8.346;2022-12-15T08:40:57;146766.75;;;-2.70;100.00
48976;BME280;34791;52.752;8.346;2022-12-15T08:43:22;146788.53;;;-2.61;100.00
48976;BME280;34791;52.752;8.346;2022-12-15T08:45:48;146829.47;;;-2.45;100.00
48976;BME280;34791;52.752;8.346;2022-12-15T08:48:13;146796.19;;;-2.58;100.00
48976;BME280;34791;52.752;8.346;2022-12-15T08:50:43;146742.44;;;-2.79;100.00
48976;BME280;34791;52.752;8.346;2022-12-15T08:53:09;146770.59;;;-2.68;100.00
48976;BME280;34791;52.752;8.346;2022-12-15T08:55:35;146714.34;;;-2.90;100.00
48976;BME280;34791;52.752;8.346;2022-12-15T08:58:00;146632.47;;;-3.23;100.00
48976;BME280;34791;52.752;8.346;2022-12-15T09:00:26;146604.31;;;-3.34;100.00
48976;BME280;34791;52.752;8.346;2022-12-15T09:02:51;146608.16;;;-3.33;100.00
48976;BME280;34791;52.752;8.346;2022-12-15T09:05:16;146599.22;;;-3.36;100.00
48976;BME280;34791;52.752;8.346;2022-12-15T09:07:42;146599.22;;;-3.36;100.00
48976;BME280;34791;52.752;8.346;2022-12-15T09:10:07;146604.31;;;-3.34;100.00
48976;BME280;34791;52.752;8.346;2022-12-15T09:12:32;146609.44;;;-3.32;100.00
48976;BME280;34791;52.752;8.346;2022-12-15T09:14:58;146623.53;;;-3.27;100.00
48976;BME280;34791;52.752;8.346;2022-12-15T09:17:23;146624.81;;;-3.26;100.00
48976;BME280;34791;52.752;8.346;2022-12-15T09:19:49;146650.34;;;-3.16;100.00
48976;BME280;34791;52.752;8.346;2022-12-15T09:22:14;146670.81;;;-3.08;100.00
48976;BME280;34791;52.752;8.346;2022-12-15T09:24:39;146677.22;;;-3.05;100.00
48976;BME280;34791;52.752;8.346;2022-12-15T09:27:05;146688.75;;;-3.01;100.00
48976;BME280;34791;52.752;8.346;2022-12-15T09:29:31;146700.25;;;-2.96;100.00
48976;BME280;34791;52.752;8.346;2022-12-15T09:31:56;146723.28;;;-2.87;100.00
48976;BME280;34791;52.752;8.346;2022-12-15T09:34:21;146742.44;;;-2.79;100.00
48976;BME280;34791;52.752;8.346;2022-12-15T09:36:47;146757.81;;;-2.73;100.00
48976;BME280;34791;52.752;8.346;2022-12-15T09:39:12;146765.50;;;-2.70;100.00
48976;BME280;34791;52.752;8.346;2022-12-15T09:41:40;146783.44;;;-2.63;100.00
48976;BME280;34791;52.752;8.346;2022-12-15T09:44:12;146801.31;;;-2.56;100.00
48976;BME280;34791;52.752;8.346;2022-12-15T09:49:36;146849.97;;;-2.37;100.00
48976;BME280;34791;52.752;8.346;2022-12-15T09:52:06;146870.47;;;-2.28;100.00
48976;BME280;34791;52.752;8.346;2022-12-15T09:54:35;146878.13;;;-2.25;100.00
48976;BME280;34791;52.752;8.346;2022-12-15T09:57:19;146901.19;;;-2.16;100.00
48976;BME280;34791;52.752;8.346;2022-12-15T10:00:52;146916.53;;;-2.10;100.00
48976;BME280;34791;52.752;8.346;2022-12-15T10:02:59;146929.38;;;-2.05;100.00
48976;BME280;34791;52.752;8.346;2022-12-15T10:05:44;146944.72;;;-1.99;100.00
48976;BME280;34791;52.752;8.346;2022-12-15T10:08:12;146957.53;;;-1.94;100.00
48976;BME280;34791;52.752;8.346;2022-12-15T10:10:47;146962.66;;;-1.92;100.00
48976;BME280;34791;52.752;8.346;2022-12-15T10:19:13;147007.47;;;-1.74;100.00
48976;BME280;34791;52.752;8.346;2022-12-15T10:21:40;147030.53;;;-1.65;100.00
48976;BME280;34791;52.752;8.346;2022-12-15T10:24:18;147047.16;;;-1.58;100.00
48976;BME280;34791;52.752;8.346;2022-12-15T10:29:46;147065.09;;;-1.51;100.00
48976;BME280;34791;52.752;8.346;2022-12-15T10:34:39;147094.56;;;-1.39;100.00
48976;BME280;34791;52.752;8.346;2022-12-15T10:37:05;147095.84;;;-1.39;100.00
48976;BME280;34791;52.752;8.346;2022-12-15T10:39:38;147121.50;;;-1.29;100.00
48976;BME280;34791;52.752;8.346;2022-12-15T10:42:23;147124.06;;;-1.28;100.00
48976;BME280;34791;52.752;8.346;2022-12-15T10:44:56;147143.28;;;-1.20;100.00
48976;BME280;34791;52.752;8.346;2022-12-15T10:47:25;147148.41;;;-1.18;100.00
48976;BME280;34791;52.752;8.346;2022-12-15T10:49:52;147172.78;;;-1.08;100.00
48976;BME280;34791;52.752;8.346;2022-12-15T10:52:33;147190.69;;;-1.01;100.00
48976;BME280;34791;52.752;8.346;2022-12-15T10:54:59;147198.38;;;-0.98;100.00
48976;BME280;34791;52.752;8.346;2022-12-15T10:57:29;147213.78;;;-0.92;100.00
48976;BME280;34791;52.752;8.346;2022-12-15T11:02:39;147243.25;;;-0.80;100.00
48976;BME280;34791;52.752;8.346;2022-12-15T11:07:46;147250.94;;;-0.77;100.00
48976;BME280;34791;52.752;8.346;2022-12-15T11:13:12;147280.44;;;-0.66;100.00
48976;BME280;34791;52.752;8.346;2022-12-15T11:21:27;147320.16;;;-0.50;100.00
48976;BME280;34791;52.752;8.346;2022-12-15T11:24:00;147340.69;;;-0.42;100.00
48976;BME280;34791;52.752;8.346;2022-12-15T11:29:12;147347.09;;;-0.39;100.00
48976;BME280;34791;52.752;8.346;2022-12-15T11:31:42;147377.88;;;-0.27;100.00
48976;BME280;34791;52.752;8.346;2022-12-15T11:34:16;147389.44;;;-0.22;100.00
48976;BME280;34791;52.752;8.346;2022-12-15T11:42:40;147431.75;;;-0.06;100.00
48976;BME280;34791;52.752;8.346;2022-12-15T11:48:11;147483.09;;;0.15;100.00
48976;BME280;34791;52.752;8.346;2022-12-15T12:02:16;147575.50;;;0.51;100.00
48976;BME280;34791;52.752;8.346;2022-12-15T12:05:02;147552.38;;;0.42;100.00
48976;BME280;34791;52.752;8.346;2022-12-15T12:07:51;147561.38;;;0.46;100.00
48976;BME280;34791;52.752;8.346;2022-12-15T12:13:33;147508.78;;;0.25;100.00
48976;BME280;34791;52.752;8.346;2022-12-15T12:16:15;147508.78;;;0.25;100.00
48976;BME280;34791;52.752;8.346;2022-12-15T12:19:01;147552.38;;;0.42;100.00
48976;BME280;34791;52.752;8.346;2022-12-15T12:21:36;147587.03;;;0.56;100.00
48976;BME280;34791;52.752;8.346;2022-12-15T12:27:17;147598.56;;;0.61;100.00
48976;BME280;34791;52.752;8.346;2022-12-15T12:29:51;147593.44;;;0.58;100.00
48976;BME280;34791;52.752;8.346;2022-12-15T12:37:37;147606.31;;;0.64;100.00
48976;BME280;34791;52.752;8.346;2022-12-15T12:40:17;147614.00;;;0.67;100.00
48976;BME280;34791;52.752;8.346;2022-12-15T12:42:50;147617.84;;;0.68;100.00
48976;BME280;34791;52.752;8.346;2022-12-15T12:45:17;147624.25;;;0.71;100.00
48976;BME280;34791;52.752;8.346;2022-12-15T12:47:47;147620.41;;;0.69;100.00
48976;BME280;34791;52.752;8.346;2022-12-15T12:50:22;147621.69;;;0.70;100.00
48976;BME280;34791;52.752;8.346;2022-12-15T12:52:54;147622.97;;;0.70;100.00
48976;BME280;34791;52.752;8.346;2022-12-15T12:55:22;147620.41;;;0.69;100.00
48976;BME280;34791;52.752;8.346;2022-12-15T12:57:50;147637.13;;;0.76;100.00
48976;BME280;34791;52.752;8.346;2022-12-15T13:00:22;147624.25;;;0.71;100.00
48976;BME280;34791;52.752;8.346;2022-12-15T13:03:15;147619.13;;;0.69;100.00
48976;BME280;34791;52.752;8.346;2022-12-15T13:05:41;147629.44;;;0.73;100.00
48976;BME280;34791;52.752;8.346;2022-12-15T13:08:15;147639.69;;;0.77;100.00
48976;BME280;34791;52.752;8.346;2022-12-15T13:10:46;147626.81;;;0.72;100.00
48976;BME280;34791;52.752;8.346;2022-12-15T13:15:46;147649.94;;;0.81;100.00
48976;BME280;34791;52.752;8.346;2022-12-15T13:18:22;147644.81;;;0.79;100.00
48976;BME280;34791;52.752;8.346;2022-12-15T13:20:57;147646.09;;;0.79;100.00
48976;BME280;34791;52.752;8.346;2022-12-15T13:23:41;147644.81;;;0.79;100.00
48976;BME280;34791;52.752;8.346;2022-12-15T13:44:29;147617.84;;;0.68;100.00
48976;BME280;34791;52.752;8.346;2022-12-15T13:47:03;147616.56;;;0.68;100.00
48976;BME280;34791;52.752;8.346;2022-12-15T13:49:33;147624.25;;;0.71;100.00
48976;BME280;34791;52.752;8.346;2022-12-15T13:52:03;147635.84;;;0.75;100.00
48976;BME280;34791;52.752;8.346;2022-12-15T13:54:38;147629.44;;;0.73;100.00
48976;BME280;34791;52.752;8.346;2022-12-15T13:57:13;147608.88;;;0.65;100.00
48976;BME280;34791;52.752;8.346;2022-12-15T14:00:05;147596.00;;;0.59;100.00
48976;BME280;34791;52.752;8.346;2022-12-15T14:02:34;147574.22;;;0.51;100.00
48976;BME280;34791;52.752;8.346;2022-12-15T14:05:18;147551.09;;;0.42;100.00
48976;BME280;34791;52.752;8.346;2022-12-15T14:07:56;147529.28;;;0.33;100.00
48976;BME280;34791;52.752;8.346;2022-12-15T14:12:59;147485.66;;;0.16;100.00
48976;BME280;34791;52.752;8.346;2022-12-15T14:15:34;147475.38;;;0.12;100.00
48976;BME280;34791;52.752;8.346;2022-12-15T14:18:01;147485.66;;;0.16;100.00
48976;BME280;34791;52.752;8.346;2022-12-15T14:20:29;147489.50;;;0.17;100.00
48976;BME280;34791;52.752;8.346;2022-12-15T14:22:56;147475.38;;;0.12;100.00
48976;BME280;34791;52.752;8.346;2022-12-15T14:25:24;147493.34;;;0.19;100.00
48976;BME280;34791;52.752;8.346;2022-12-15T14:27:50;147480.53;;;0.14;100.00
48976;BME280;34791;52.752;8.346;2022-12-15T14:32:57;147462.56;;;0.07;100.00
48976;BME280;34791;52.752;8.346;2022-12-15T14:35:53;147440.72;;;-0.02;100.00
48976;BME280;34791;52.752;8.346;2022-12-15T14:41:23;147429.19;;;-0.07;100.00
48976;BME280;34791;52.752;8.346;2022-12-15T14:43:51;147472.81;;;0.11;100.00
48976;BME280;34791;52.752;8.346;2022-12-15T14:46:22;147484.38;;;0.15;100.00
48976;BME280;34791;52.752;8.346;2022-12-15T14:48:55;147477.97;;;0.13;100.00
48976;BME280;34791;52.752;8.346;2022-12-15T14:51:23;147481.81;;;0.14;100.00
48976;BME280;34791;52.752;8.346;2022-12-15T14:53:51;147474.09;;;0.11;100.00
48976;BME280;34791;52.752;8.346;2022-12-15T14:58:59;147420.25;;;-0.10;100.00
48976;BME280;34791;52.752;8.346;2022-12-15T15:01:38;147395.84;;;-0.20;100.00
48976;BME280;34791;52.752;8.346;2022-12-15T15:04:29;147377.88;;;-0.27;100.00
48976;BME280;34791;52.752;8.346;2022-12-15T15:06:57;147359.94;;;-0.34;100.00
48976;BME280;34791;52.752;8.346;2022-12-15T15:11:57;147325.31;;;-0.48;100.00